Time;durP1;ratioP1;P1;durP2;ratioP2;P2;SDS_P1;SDS_P2;PMS_P1;PMS_P2;Temp;Humidity;BMP_temperature;BMP_pressure;BME280_temperature;BME280_humidity;BME280_pressure;Samples;Min_cycle;Max_cycle;Signal;HPM_P1;HPM_P2
2022/07/26 00:02:05;;;;;;;6.32;2.63;;;;;;;18.48;71.99;100423.44;4970409;28;20101;-85
2022/07/26 00:05:09;;;;;;;6.50;1.83;;;;;;;18.35;72.47;100419.19;4958203;28;20735;-85
2022/07/26 00:08:12;;;;;;;7.35;2.15;;;;;;;18.36;72.35;100415.56;4969490;28;20159;-84
2022/07/26 00:11:16;;;;;;;9.15;1.98;;;;;;;18.44;72.64;100424.63;4972584;28;20068;-84
2022/07/26 00:14:21;;;;;;;8.10;2.38;;;;;;;18.32;73.38;100424.75;4989110;28;20061;-84
2022/07/26 00:17:24;;;;;;;6.72;2.13;;;;;;;18.24;73.62;100421.91;4988892;28;20041;-85
2022/07/26 00:20:28;;;;;;;7.38;2.10;;;;;;;18.31;73.31;100431.03;4993037;28;20551;-85
2022/07/26 00:23:50;;;;;;;7.97;2.42;;;;;;;18.61;71.08;100424.03;4983589;28;20675;-84
2022/07/26 00:27:12;;;;;;;7.22;2.17;;;;;;;18.54;71.77;100438.78;4992058;28;20122;-85
2022/07/26 00:30:16;;;;;;;8.05;2.15;;;;;;;18.28;72.88;100435.72;4983565;28;20048;-85
2022/07/26 00:33:19;;;;;;;6.80;1.83;;;;;;;18.22;73.24;100447.69;4969783;28;20052;-85
2022/07/26 00:36:22;;;;;;;7.15;2.47;;;;;;;18.22;73.44;100444.19;4972667;28;20042;-85
2022/07/26 00:39:27;;;;;;;6.82;2.25;;;;;;;18.23;73.83;100451.16;4973254;28;20097;-84
2022/07/26 00:42:31;;;;;;;8.70;2.40;;;;;;;18.21;73.44;100448.63;4973796;28;20125;-83
2022/07/26 00:45:35;;;;;;;5.50;2.15;;;;;;;18.24;73.17;100458.97;4973286;28;20053;-84
2022/07/26 00:48:39;;;;;;;4.82;2.15;;;;;;;18.45;71.13;100458.94;4973400;28;20516;-84
2022/07/26 00:51:42;;;;;;;8.95;2.15;;;;;;;18.49;71.53;100467.47;4973395;28;20045;-84
2022/07/26 00:54:46;;;;;;;9.75;2.28;;;;;;;18.26;72.49;100462.34;4972541;28;20081;-84
2022/07/26 00:57:50;;;;;;;7.93;2.08;;;;;;;18.29;72.34;100462.06;4972792;28;20097;-84
2022/07/26 01:00:53;;;;;;;7.47;2.90;;;;;;;18.30;72.53;100461.09;4983669;28;20050;-83
2022/07/26 01:03:57;;;;;;;9.45;1.92;;;;;;;18.28;72.35;100465.69;4961759;28;20054;-84
2022/07/26 01:07:03;;;;;;;6.00;2.03;;;;;;;18.23;72.70;100467.88;4973147;28;20074;-84
2022/07/26 01:10:11;;;;;;;8.38;2.13;;;;;;;18.20;72.94;100468.16;4989343;28;20041;-83
2022/07/26 01:13:20;;;;;;;15.63;2.40;;;;;;;18.23;73.04;100475.81;4992849;28;20077;-83
2022/07/26 01:16:24;;;;;;;6.70;1.88;;;;;;;18.26;72.60;100472.91;4992109;28;20060;-84
2022/07/26 01:19:27;;;;;;;3.75;1.77;;;;;;;18.16;72.70;100469.38;4980091;28;20527;-83
2022/07/26 01:22:31;;;;;;;7.03;2.40;;;;;;;18.12;72.95;100468.81;4979656;28;20492;-83
2022/07/26 01:25:36;;;;;;;8.73;2.28;;;;;;;18.21;72.49;100463.69;4991703;28;20104;-83
2022/07/26 01:28:40;;;;;;;5.60;2.10;;;;;;;18.23;72.52;100467.88;4991512;28;20180;-84
2022/07/26 01:31:43;;;;;;;6.82;2.30;;;;;;;17.97;73.76;100474.56;4991638;28;20125;-85
2022/07/26 01:34:46;;;;;;;9.45;2.20;;;;;;;17.93;73.60;100471.31;4992169;28;20470;-85
2022/07/26 01:37:49;;;;;;;5.57;2.05;;;;;;;17.92;73.60;100474.09;4991129;28;20092;-85
2022/07/26 01:40:54;;;;;;;7.38;1.55;;;;;;;17.80;74.09;100474.13;4979683;28;20065;-85
2022/07/26 01:43:57;;;;;;;7.68;2.40;;;;;;;17.83;73.73;100478.34;4991610;28;20061;-84
2022/07/26 01:47:01;;;;;;;7.38;1.88;;;;;;;17.60;74.67;100486.34;4991917;28;20126;-84
2022/07/26 01:50:06;;;;;;;7.07;2.70;;;;;;;17.53;74.38;100501.03;4992027;28;20056;-84
2022/07/26 01:53:09;;;;;;;5.65;1.85;;;;;;;17.43;74.70;100494.81;4991870;28;20057;-84
2022/07/26 01:56:14;;;;;;;6.57;1.77;;;;;;;17.57;74.15;100496.34;4991156;28;20129;-84
2022/07/26 01:59:17;;;;;;;6.40;2.10;;;;;;;17.42;73.98;100504.56;4978690;28;20454;-84
2022/07/26 02:02:21;;;;;;;5.55;1.90;;;;;;;17.47;73.75;100506.00;4991266;28;20515;-83
2022/07/26 02:05:24;;;;;;;5.60;1.73;;;;;;;17.56;72.99;100516.66;4977362;28;20053;-85
2022/07/26 02:08:28;;;;;;;4.60;1.50;;;;;;;17.67;70.74;100507.81;4959677;28;20471;-84
2022/07/26 02:11:31;;;;;;;6.00;1.88;;;;;;;17.50;72.63;100505.75;4972258;28;20756;-84
2022/07/26 02:14:34;;;;;;;8.23;1.90;;;;;;;17.13;74.58;100517.50;4972361;28;20050;-84
2022/07/26 02:17:38;;;;;;;5.28;1.92;;;;;;;17.03;75.29;100518.31;4971480;28;20563;-84
2022/07/26 02:20:41;;;;;;;5.20;1.67;;;;;;;17.01;75.03;100514.97;4968203;28;20455;-84
2022/07/26 02:23:46;;;;;;;4.28;1.88;;;;;;;17.20;73.92;100515.19;4991061;28;20054;-85
2022/07/26 02:26:49;;;;;;;5.82;1.98;;;;;;;16.89;75.28;100522.91;4991092;28;20061;-85
2022/07/26 02:29:54;;;;;;;5.25;1.75;;;;;;;16.86;75.48;100528.41;4991353;28;20097;-85
2022/07/26 02:32:58;;;;;;;6.25;1.90;;;;;;;16.93;75.14;100519.03;4991423;28;20073;-84
2022/07/26 02:36:01;;;;;;;8.82;1.88;;;;;;;16.80;75.86;100523.63;4990395;28;20065;-85
2022/07/26 02:39:05;;;;;;;6.70;2.25;;;;;;;16.99;74.50;100524.81;4990632;28;20042;-85
2022/07/26 02:42:09;;;;;;;5.63;2.05;;;;;;;16.76;75.21;100532.75;4990251;28;20052;-84
2022/07/26 02:45:12;;;;;;;6.38;2.20;;;;;;;16.63;75.66;100526.72;4990771;28;20049;-84
2022/07/26 02:48:16;;;;;;;10.23;2.35;;;;;;;16.82;74.80;100529.63;4990426;28;20053;-84
2022/07/26 02:51:22;;;;;;;8.05;2.45;;;;;;;16.68;75.53;100529.81;4971077;28;20081;-85
2022/07/26 02:54:25;;;;;;;7.10;1.80;;;;;;;16.78;75.00;100535.25;4948565;28;20169;-85
2022/07/26 02:57:28;;;;;;;4.95;1.70;;;;;;;16.71;75.09;100537.50;4970875;28;20577;-85
2022/07/26 03:00:32;;;;;;;5.25;2.03;;;;;;;16.57;75.39;100543.03;4970544;28;20096;-84
2022/07/26 03:03:35;;;;;;;6.70;1.92;;;;;;;16.52;75.52;100538.91;4979222;28;20089;-85
2022/07/26 03:06:39;;;;;;;4.05;1.30;;;;;;;16.56;75.20;100541.31;4978444;28;20048;-85
2022/07/26 03:09:42;;;;;;;5.65;2.10;;;;;;;16.76;74.75;100548.59;4990998;28;20060;-84
2022/07/26 03:12:47;;;;;;;6.03;1.45;;;;;;;16.77;74.67;100550.25;4990264;28;20079;-84
2022/07/26 03:15:50;;;;;;;6.47;1.77;;;;;;;16.56;75.42;100547.47;4990141;28;20053;-84
2022/07/26 03:18:55;;;;;;;8.82;2.83;;;;;;;16.39;76.22;100551.38;4977513;28;20045;-84
2022/07/26 03:21:59;;;;;;;4.95;1.67;;;;;;;16.44;76.24;100548.41;4989789;28;20046;-85
2022/07/26 03:25:03;;;;;;;7.00;2.00;;;;;;;16.43;76.47;100557.25;4978182;28;20093;-83
2022/07/26 03:28:08;;;;;;;6.53;2.25;;;;;;;16.45;76.41;100556.19;4989853;28;20511;-83
2022/07/26 03:31:12;;;;;;;6.57;2.22;;;;;;;16.45;76.81;100556.19;4990060;28;20068;-83
2022/07/26 03:34:15;;;;;;;6.00;1.98;;;;;;;16.45;76.91;100556.19;4989836;28;20739;-83
2022/07/26 03:37:20;;;;;;;7.50;1.65;;;;;;;16.41;77.20;100560.03;4989227;28;20061;-83
2022/07/26 03:40:23;;;;;;;5.35;1.88;;;;;;;16.47;76.94;100546.38;4989384;28;20049;-84
2022/07/26 03:43:27;;;;;;;5.60;1.83;;;;;;;16.35;77.74;100555.22;4989233;28;20486;-84
2022/07/26 03:46:30;;;;;;;6.45;1.67;;;;;;;16.34;77.67;100558.81;4985818;28;20943;-82
2022/07/26 03:49:33;;;;;;;6.28;2.13;;;;;;;16.36;77.77;100564.81;4972929;28;20130;-83
2022/07/26 03:52:37;;;;;;;6.43;2.00;;;;;;;16.37;78.04;100566.50;4975602;28;20129;-84
2022/07/26 03:59:07;;;;;;;8.35;2.30;;;;;;;16.65;77.03;100564.38;4989612;28;20108;-84
2022/07/26 04:02:11;;;;;;;10.13;2.25;;;;;;;16.74;76.01;100561.03;4971083;28;20539;-84
2022/07/26 04:05:15;;;;;;;7.50;2.47;;;;;;;16.77;75.80;100560.81;4970201;28;20182;-84
2022/07/26 04:08:19;;;;;;;6.25;1.70;;;;;;;16.77;76.00;100566.09;4969639;28;20404;-84
2022/07/26 04:11:23;;;;;;;7.93;1.98;;;;;;;16.76;76.08;100569.72;4969148;28;20062;-71
2022/07/26 04:14:26;;;;;;;9.00;1.90;;;;;;;16.68;76.45;100567.63;4986789;28;20132;-70
2022/07/26 04:17:38;;;;;;;6.93;1.90;;;;;;;16.66;76.85;100568.72;4988344;28;20089;-70
2022/07/26 04:20:42;;;;;;;6.20;1.73;;;;;;;16.75;76.97;100568.00;4988648;28;20049;-69
2022/07/26 04:23:46;;;;;;;5.60;1.80;;;;;;;16.79;76.77;100566.00;4988404;28;20591;-69
2022/07/26 04:26:49;;;;;;;8.77;2.05;;;;;;;16.84;76.33;100562.03;4988858;28;20042;-70
2022/07/26 04:29:52;;;;;;;12.18;2.55;;;;;;;16.88;76.58;100570.53;4987861;28;20557;-71
2022/07/26 04:32:57;;;;;;;5.88;1.73;;;;;;;16.74;76.77;100566.31;4987553;28;20146;-70
2022/07/26 04:40:32;;;;;;;5.05;1.75;;;;;;;17.13;74.07;100572.09;4988784;28;20053;-72
2022/07/26 04:43:35;;;;;;;7.57;1.83;;;;;;;16.96;73.11;100569.00;4968602;28;20042;-71
2022/07/26 04:46:38;;;;;;;4.28;1.48;;;;;;;17.09;72.03;100571.50;4968984;28;20503;-71
2022/07/26 04:49:43;;;;;;;5.35;1.50;;;;;;;17.11;71.69;100574.03;4968393;28;20644;-71
2022/07/26 04:52:47;;;;;;;4.28;1.40;;;;;;;17.28;71.52;100576.19;4968364;28;20081;-70
2022/07/26 04:55:50;;;;;;;6.30;1.85;;;;;;;17.46;72.15;100567.75;4973808;28;20139;-73
2022/07/26 04:58:54;;;;;;;7.07;1.98;;;;;;;17.34;73.98;100574.84;4987688;28;20109;-71
2022/07/26 05:01:57;;;;;;;2.92;1.40;;;;;;;17.33;74.80;100568.75;4985256;28;20123;-71
2022/07/26 05:05:01;;;;;;;4.65;1.70;;;;;;;17.43;74.68;100558.25;4987800;28;20057;-70
2022/07/26 05:08:04;;;;;;;5.88;1.58;;;;;;;17.34;75.05;100554.53;4991966;28;20073;-71
2022/07/26 05:11:08;;;;;;;7.75;2.05;;;;;;;17.35;75.57;100556.22;4988720;28;20053;-71
2022/07/26 05:14:11;;;;;;;6.57;1.73;;;;;;;17.42;75.70;100551.28;4992404;28;20153;-70
2022/07/26 05:17:14;;;;;;;5.53;1.95;;;;;;;17.30;76.07;100552.28;4991408;28;20395;-70
2022/07/26 05:20:21;;;;;;;6.70;1.50;;;;;;;17.19;76.24;100555.75;4991288;28;20057;-72
2022/07/26 05:23:25;;;;;;;6.47;2.05;;;;;;;17.16;76.09;100553.38;4991684;28;20109;-72
2022/07/26 05:26:28;;;;;;;7.10;1.95;;;;;;;17.17;75.70;100549.78;4990160;28;20093;-69
2022/07/26 05:29:31;;;;;;;6.05;1.50;;;;;;;17.42;74.35;100554.78;4990794;28;20057;-69
2022/07/26 05:32:35;;;;;;;4.85;1.40;;;;;;;17.67;72.73;100566.84;4971052;28;20132;-69
2022/07/26 05:35:41;;;;;;;4.30;1.52;;;;;;;17.79;72.64;100558.91;4971292;28;20045;-69
2022/07/26 05:38:44;;;;;;;7.50;1.65;;;;;;;17.74;73.17;100561.91;4981117;28;20043;-78
2022/07/26 05:41:47;;;;;;;3.95;1.38;;;;;;;17.89;71.60;100559.81;4977517;28;20049;-75
2022/07/26 05:44:51;;;;;;;4.05;1.70;;;;;;;18.04;70.61;100557.72;4986497;28;20047;-81
2022/07/26 05:47:56;;;;;;;3.90;1.33;;;;;;;18.21;69.92;100559.78;4970817;28;20093;-79
2022/07/26 05:51:00;;;;;;;3.30;1.23;;;;;;;18.15;69.79;100556.81;4959540;28;20515;-79
2022/07/26 05:54:03;;;;;;;6.95;1.77;;;;;;;18.25;67.61;100558.59;4971501;28;20416;-78
2022/07/26 05:57:07;;;;;;;6.25;1.77;;;;;;;18.31;66.19;100551.91;4972070;28;20550;-81
2022/07/26 06:00:10;;;;;;;3.88;1.10;;;;;;;18.42;65.44;100566.91;4972263;28;20129;-78
2022/07/26 06:03:24;;;;;;;4.32;1.20;;;;;;;18.52;64.80;100560.69;4972863;28;20101;-79
2022/07/26 06:06:27;;;;;;;5.18;1.30;;;;;;;18.43;64.22;100558.00;4972224;28;20476;-79
2022/07/26 06:09:32;;;;;;;4.40;1.00;;;;;;;18.35;64.14;100556.84;4991437;28;20068;-84
2022/07/26 06:12:35;;;;;;;8.80;1.38;;;;;;;18.62;63.44;100555.47;4978701;28;20049;-77
2022/07/26 06:15:41;;;;;;;4.10;1.13;;;;;;;18.83;63.64;100558.13;4978511;28;20081;-71
2022/07/26 06:18:44;;;;;;;9.85;1.40;;;;;;;18.77;63.37;100561.28;4990040;28;20041;-73
2022/07/26 06:21:49;;;;;;;8.18;0.90;;;;;;;18.92;62.59;100559.09;4989173;28;20045;-72
2022/07/26 06:24:53;;;;;;;3.63;1.10;;;;;;;18.88;62.79;100558.53;4966780;28;20084;-72
2022/07/26 06:28:33;;;;;;;4.28;1.30;;;;;;;18.92;62.49;100564.41;4989256;28;20448;-72
2022/07/26 06:31:36;;;;;;;4.10;1.33;;;;;;;18.98;62.02;100558.56;4989521;28;20575;-72
2022/07/26 06:34:40;;;;;;;5.70;1.25;;;;;;;19.19;61.68;100566.47;4973568;28;20053;-71
2022/07/26 06:37:43;;;;;;;4.65;1.25;;;;;;;19.27;61.30;100563.97;4969948;28;20041;-71
2022/07/26 06:40:47;;;;;;;5.25;1.15;;;;;;;19.17;61.04;100558.63;4970090;28;20466;-71
2022/07/26 06:43:51;;;;;;;4.95;1.27;;;;;;;19.31;61.07;100565.41;4970371;28;20081;-71
2022/07/26 06:46:55;;;;;;;3.42;0.90;;;;;;;19.29;60.97;100572.63;4980507;28;20045;-70
2022/07/26 06:49:58;;;;;;;5.47;1.23;;;;;;;19.32;61.55;100568.88;4990777;28;20104;-71
2022/07/26 06:53:02;;;;;;;4.35;0.90;;;;;;;19.34;61.22;100564.28;4990660;28;20077;-71
2022/07/26 06:56:05;;;;;;;4.47;1.20;;;;;;;19.48;60.55;100574.50;4976775;28;20755;-72
2022/07/26 06:59:09;;;;;;;8.77;1.27;;;;;;;19.65;60.33;100568.53;4977058;28;20092;-72
2022/07/26 07:02:12;;;;;;;7.45;1.05;;;;;;;19.52;60.42;100567.94;4988639;28;20080;-73
2022/07/26 07:05:15;;;;;;;5.60;1.10;;;;;;;19.59;60.30;100569.09;4989487;28;20097;-71
2022/07/26 07:08:21;;;;;;;4.25;1.27;;;;;;;19.61;60.09;100572.44;4989257;28;20045;-71
2022/07/26 07:11:25;;;;;;;8.00;1.20;;;;;;;19.63;59.86;100565.19;4989850;28;20053;-71
2022/07/26 07:14:28;;;;;;;6.57;1.00;;;;;;;19.60;59.92;100565.47;4988526;28;20073;-71
2022/07/26 07:17:33;;;;;;;11.52;1.23;;;;;;;19.62;60.50;100566.16;4976472;28;20246;-71
2022/07/26 07:20:39;;;;;;;3.97;1.17;;;;;;;19.83;60.20;100560.75;4988578;28;20092;-71
2022/07/26 07:23:41;;;;;;;5.15;1.05;;;;;;;19.98;59.00;100558.53;4989005;28;20561;-71
2022/07/26 07:26:45;;;;;;;7.88;1.90;;;;;;;20.01;58.87;100565.38;4989993;28;20486;-71
2022/07/26 07:29:48;;;;;;;3.95;0.95;;;;;;;19.89;59.02;100559.38;4988098;28;20049;-72
2022/07/26 07:32:52;;;;;;;5.40;1.00;;;;;;;19.96;59.17;100563.97;4989620;28;20041;-68
2022/07/26 07:35:55;;;;;;;8.40;1.10;;;;;;;19.96;59.16;100557.81;4988534;28;20342;-75
2022/07/26 07:38:58;;;;;;;9.95;1.10;;;;;;;20.03;59.36;100564.25;4988596;28;20045;-70
2022/07/26 07:42:02;;;;;;;6.43;1.05;;;;;;;20.11;58.40;100564.38;4976557;28;20057;-76
2022/07/26 07:45:05;;;;;;;5.20;1.27;;;;;;;20.09;58.73;100554.88;4988343;28;20139;-74
2022/07/26 07:48:09;;;;;;;6.10;1.83;;;;;;;20.23;58.45;100561.56;4988975;28;20057;-70
2022/07/26 07:51:12;;;;;;;5.97;1.10;;;;;;;20.34;58.39;100564.91;4969308;28;20053;-66
2022/07/26 07:54:17;;;;;;;5.15;1.08;;;;;;;20.35;58.20;100566.59;4969010;28;20069;-66
2022/07/26 07:57:20;;;;;;;5.57;1.30;;;;;;;20.26;58.93;100577.22;4967511;28;20436;-66
2022/07/26 08:00:25;;;;;;;4.40;1.33;;;;;;;20.24;59.61;100582.69;4968503;28;20089;-65
2022/07/26 08:03:28;;;;;;;6.07;1.98;;;;;;;20.09;59.34;100581.44;4984876;28;20045;-83
2022/07/26 08:06:39;;;;;;;5.82;1.40;;;;;;;20.11;59.70;100574.16;4988048;28;20531;-87
2022/07/26 08:10:05;;;;;;;6.13;1.30;;;;;;;20.24;59.31;100579.19;4988135;28;20105;-85
2022/07/26 08:13:13;;;;;;;6.65;1.38;;;;;;;20.12;59.01;100587.28;4986891;28;20411;-83
2022/07/26 08:16:16;;;;;;;4.85;1.38;;;;;;;19.96;59.49;100571.94;4975684;28;20085;-83
2022/07/26 08:19:21;;;;;;;7.38;1.40;;;;;;;20.31;58.54;100585.59;4986975;28;20080;-70
2022/07/26 08:22:27;;;;;;;3.70;1.15;;;;;;;20.50;57.99;100585.56;4986773;28;20517;-70
2022/07/26 08:25:31;;;;;;;7.28;1.83;;;;;;;20.75;57.95;100583.31;4986970;28;20045;-69
2022/07/26 08:28:35;;;;;;;7.55;1.30;;;;;;;20.41;57.86;100592.56;4986796;28;20069;-70
2022/07/26 08:31:38;;;;;;;4.57;1.30;;;;;;;20.47;57.29;100603.63;4986857;28;20053;-69
2022/07/26 08:34:41;;;;;;;6.90;1.40;;;;;;;20.50;57.69;100585.56;4986324;28;20509;-70
2022/07/26 08:37:45;;;;;;;7.97;1.60;;;;;;;20.56;57.25;100585.03;4986428;28;20113;-69
2022/07/26 08:40:48;;;;;;;4.85;1.20;;;;;;;20.84;56.50;100588.59;4988831;28;20046;-70
2022/07/26 08:43:52;;;;;;;6.53;1.17;;;;;;;21.23;55.61;100588.44;4990175;28;20452;-70
2022/07/26 08:46:55;;;;;;;5.40;1.70;;;;;;;21.22;55.31;100583.25;4990357;28;20208;-71
2022/07/26 08:49:58;;;;;;;5.20;1.17;;;;;;;21.18;54.65;100595.16;4990568;28;20048;-71
2022/07/26 08:53:07;;;;;;;4.88;1.20;;;;;;;21.09;54.95;100591.56;4989602;28;20053;-71
2022/07/26 08:56:12;;;;;;;7.03;1.45;;;;;;;21.23;55.24;100592.91;4989306;28;20061;-70
2022/07/26 08:59:17;;;;;;;5.72;1.17;;;;;;;21.34;53.95;100595.38;4989734;28;20527;-71
2022/07/26 09:02:20;;;;;;;4.05;1.00;;;;;;;21.34;53.89;100590.03;4989573;28;20088;-70
2022/07/26 09:05:34;;;;;;;4.60;0.95;;;;;;;21.41;53.49;100591.19;4989086;28;20065;-70
2022/07/26 09:08:38;;;;;;;5.78;1.08;;;;;;;21.38;53.38;100590.63;4986141;28;20042;-71
2022/07/26 09:11:41;;;;;;;6.00;1.27;;;;;;;21.32;53.75;100600.03;4990869;28;20103;-73
2022/07/26 09:14:46;;;;;;;6.35;1.00;;;;;;;21.55;53.30;100598.66;4992465;28;20049;-71
2022/07/26 09:17:54;;;;;;;2.95;0.85;;;;;;;21.28;54.14;100601.28;4991709;28;20871;-71
2022/07/26 09:20:57;;;;;;;6.28;1.50;;;;;;;21.26;54.55;100597.94;4992281;28;20101;-71
2022/07/26 09:24:01;;;;;;;4.28;1.00;;;;;;;21.52;54.27;100603.44;4991069;28;20045;-71
2022/07/26 09:27:06;;;;;;;5.53;2.03;;;;;;;21.49;53.90;100611.72;4991058;28;20100;-71
2022/07/26 09:30:10;;;;;;;7.20;1.60;;;;;;;21.56;53.97;100610.94;4991817;28;20069;-71
2022/07/26 09:33:14;;;;;;;7.07;1.05;;;;;;;21.38;54.33;100607.44;4991757;28;20045;-71
2022/07/26 09:36:18;;;;;;;4.72;1.20;;;;;;;21.38;54.22;100614.56;4991850;28;20044;-71
2022/07/26 09:39:22;;;;;;;3.83;1.13;;;;;;;21.24;54.68;100619.34;4991256;28;20061;-71
2022/07/26 09:42:26;;;;;;;3.97;1.05;;;;;;;21.14;54.79;100635.34;4990953;28;20124;-70
2022/07/26 09:45:32;;;;;;;6.07;1.30;;;;;;;21.24;54.75;100621.19;4990807;28;20042;-70
2022/07/26 09:48:38;;;;;;;4.88;1.40;;;;;;;21.29;55.62;100634.88;4991048;28;20069;-70
2022/07/26 09:51:44;;;;;;;5.05;1.50;;;;;;;21.11;55.62;100634.81;4990003;28;20566;-70
2022/07/26 09:54:48;;;;;;;6.80;1.20;;;;;;;21.25;55.92;100628.16;4990524;28;20557;-71
2022/07/26 09:57:52;;;;;;;5.00;1.38;;;;;;;21.25;56.71;100630.81;4958232;28;20053;-70
2022/07/26 10:00:55;;;;;;;6.45;1.35;;;;;;;21.15;56.43;100638.84;4950116;28;20050;-71
2022/07/26 10:03:59;;;;;;;5.78;1.40;;;;;;;21.21;55.54;100640.09;4950609;29;20046;-70
2022/07/26 10:07:03;;;;;;;4.30;1.65;;;;;;;21.18;55.28;100643.03;4956228;28;20135;-70
2022/07/26 10:10:10;;;;;;;8.40;2.13;;;;;;;21.46;54.81;100641.28;4976218;28;20160;-69
2022/07/26 10:13:17;;;;;;;6.38;1.67;;;;;;;21.33;54.57;100646.91;4990534;28;20595;-70
2022/07/26 10:16:31;;;;;;;6.68;1.67;;;;;;;21.44;55.15;100643.22;4978426;28;20049;-71
2022/07/26 10:19:40;;;;;;;6.57;1.60;;;;;;;21.43;54.42;100645.06;4990131;28;20057;-70
2022/07/26 10:26:44;;;;;;;3.95;1.38;;;;;;;21.58;53.89;100642.75;4972086;28;20434;-70
2022/07/26 10:29:48;;;;;;;5.85;1.58;;;;;;;21.84;53.82;100637.53;4971474;28;20424;-70
2022/07/26 10:32:59;;;;;;;8.15;1.80;;;;;;;21.94;53.84;100640.13;4971257;28;20109;-71
2022/07/26 10:36:20;;;;;;;7.82;1.58;;;;;;;21.91;52.94;100640.44;4970319;28;20054;-70
2022/07/26 10:39:25;;;;;;;8.55;2.08;;;;;;;21.75;53.71;100651.75;4970589;28;20046;-71
2022/07/26 10:42:41;;;;;;;11.18;1.83;;;;;;;22.11;52.64;100649.09;4971204;28;20045;-81
2022/07/26 10:45:46;;;;;;;5.65;1.60;;;;;;;22.15;52.27;100645.19;4970319;28;20061;-81
2022/07/26 10:49:03;;;;;;;6.53;1.60;;;;;;;22.19;52.07;100651.91;4970464;28;20109;-80
2022/07/26 10:52:15;;;;;;;4.03;1.30;;;;;;;21.90;52.53;100647.59;4951120;29;20527;-75
2022/07/26 10:55:19;;;;;;;;;;;;;;;21.94;52.88;100646.28;4953775;28;20126;-76
2022/07/26 10:58:26;;;;;;;6.30;1.60;;;;;;;22.16;52.82;100638.88;4976168;28;19967;-77
2022/07/26 11:01:33;;;;;;;8.35;2.38;;;;;;;;;;4984707;28;20049;-77
2022/07/26 11:04:37;;;;;;;4.18;1.40;;;;;;;22.01;53.50;100636.69;4987059;28;20069;-78
2022/07/26 11:08:06;;;;;;;4.95;1.40;;;;;;;22.04;52.64;100632.91;4989686;28;20100;-76
2022/07/26 11:11:10;;;;;;;5.95;1.33;;;;;;;21.80;51.86;100636.19;4990492;28;20305;-74
2022/07/26 11:14:15;;;;;;;4.25;1.30;;;;;;;21.83;52.77;100641.19;4989856;28;20045;-72
2022/07/26 11:17:27;;;;;;;6.18;1.35;;;;;;;21.79;53.04;100647.78;4989770;28;20641;-74
2022/07/26 11:20:30;;;;;;;4.65;1.48;;;;;;;21.65;53.22;100645.66;4989852;28;20053;-73
2022/07/26 11:23:35;;;;;;;4.93;1.05;;;;;;;21.52;53.67;100641.50;4988390;28;20057;-73
2022/07/26 11:26:43;;;;;;;4.00;1.50;;;;;;;21.64;53.53;100646.66;4969541;28;20163;-73
2022/07/26 11:29:46;;;;;;;5.00;1.52;;;;;;;21.65;53.49;100653.63;4987943;28;20041;-75
2022/07/26 11:32:54;;;;;;;4.40;1.48;;;;;;;21.46;54.76;100660.72;4988115;28;20053;-73
2022/07/26 11:35:58;;;;;;;8.43;1.80;;;;;;;21.44;54.40;100649.41;4977613;28;20045;-75
2022/07/26 11:39:07;;;;;;;5.15;1.83;;;;;;;21.42;54.71;100648.72;4989456;28;20053;-78
2022/07/26 11:42:18;;;;;;;6.55;1.63;;;;;;;21.61;54.19;100654.91;4988290;28;20061;-90
2022/07/26 11:45:24;;;;;;;6.03;1.38;;;;;;;21.85;54.15;100647.19;4978543;28;20438;-83
2022/07/26 11:48:31;;;;;;;4.20;1.55;;;;;;;22.24;51.83;100636.31;4988751;28;20056;-86
2022/07/26 11:51:36;;;;;;;3.95;1.42;;;;;;;22.33;51.58;100638.03;4989677;28;20100;-88
2022/07/26 11:54:51;;;;;;;4.20;1.65;;;;;;;22.61;50.72;100632.59;4989426;28;20109;-77
2022/07/26 11:58:21;;;;;;;6.20;1.50;;;;;;;23.01;49.81;100625.88;4988601;28;20124;-82
2022/07/26 12:01:25;;;;;;;7.32;1.17;;;;;;;22.60;49.70;100622.94;4988435;28;20101;-79
2022/07/26 12:04:33;;;;;;;3.67;1.90;;;;;;;22.26;50.39;100626.31;4988943;28;20041;-88
2022/07/26 12:07:54;;;;;;;4.72;1.40;;;;;;;22.36;50.18;100627.06;4988368;28;20057;-88
2022/07/26 12:10:59;;;;;;;4.07;1.50;;;;;;;22.31;50.43;100617.88;4989336;28;20122;-77
2022/07/26 12:14:03;;;;;;;7.38;2.58;;;;;;;22.72;49.39;100619.03;4989553;28;20057;-74
2022/07/26 12:17:13;;;;;;;6.95;1.50;;;;;;;23.14;48.95;100615.63;4992703;28;20126;-75
2022/07/26 12:20:17;;;;;;;3.17;1.30;;;;;;;23.76;48.04;100607.34;4992739;28;20374;-76
2022/07/26 12:23:20;;;;;;;2.78;1.17;;;;;;;24.00;46.18;100604.72;4992015;28;20053;-74
2022/07/26 12:26:26;;;;;;;3.97;1.48;;;;;;;23.86;45.83;100594.66;4992276;28;20061;-75
2022/07/26 12:29:35;;;;;;;4.28;1.77;;;;;;;23.90;44.91;100607.53;4991921;28;20546;-73
2022/07/26 12:32:41;;;;;;;6.03;1.45;;;;;;;23.69;45.66;100596.47;4992260;28;20096;-76
2022/07/26 12:35:44;;;;;;;4.22;1.38;;;;;;;23.20;46.99;100613.16;4993059;28;20081;-78
2022/07/26 12:38:52;;;;;;;6.38;1.33;;;;;;;23.12;48.73;100596.25;4992930;28;20586;-75
2022/07/26 12:41:57;;;;;;;4.70;1.63;;;;;;;23.28;48.30;100603.50;4992948;28;20188;-79
2022/07/26 12:45:02;;;;;;;3.67;1.23;;;;;;;23.24;47.03;100597.66;4992751;28;20140;-77
2022/07/26 12:48:11;;;;;;;3.05;1.20;;;;;;;23.42;47.16;100600.19;4992784;28;20108;-75
2022/07/26 12:51:14;;;;;;;3.70;1.40;;;;;;;23.67;47.38;100598.44;4992575;28;20065;-77
2022/07/26 12:54:19;;;;;;;8.18;1.98;;;;;;;23.58;48.41;100596.75;4992974;28;20466;-77
2022/07/26 12:57:22;;;;;;;7.43;2.42;;;;;;;23.56;48.60;100598.75;4972762;28;20105;-77
2022/07/26 13:00:27;;;;;;;5.13;1.77;;;;;;;23.19;48.53;100602.63;4972787;28;20065;-76
2022/07/26 13:03:30;;;;;;;5.18;2.00;;;;;;;23.62;49.23;100595.44;4973855;28;20144;-77
2022/07/26 13:06:38;;;;;;;5.03;2.00;;;;;;;23.56;48.47;100591.59;4972929;28;20057;-78
2022/07/26 13:09:42;;;;;;;3.72;1.90;;;;;;;23.65;47.71;100589.78;4973558;28;20105;-77
2022/07/26 13:12:46;;;;;;;5.95;1.77;;;;;;;23.62;47.24;100585.59;4972687;28;20133;-77
2022/07/26 13:16:07;;;;;;;4.50;1.90;;;;;;;23.98;45.54;100579.16;4971941;28;20412;-77
2022/07/26 13:19:10;;;;;;;3.70;1.77;;;;;;;24.58;43.19;100570.81;4972483;28;20045;-76
2022/07/26 13:22:14;;;;;;;2.90;1.55;;;;;;;25.05;41.69;100568.16;4972142;28;20105;-79
2022/07/26 13:25:17;;;;;;;3.53;1.80;;;;;;;25.24;40.82;100564.28;4971853;28;20045;-78
2022/07/26 13:28:21;;;;;;;2.40;1.33;;;;;;;25.94;39.82;100566.03;4970960;28;20107;-77
2022/07/26 13:31:25;;;;;;;6.22;1.75;;;;;;;26.18;39.43;100548.91;4971227;28;20109;-78
2022/07/26 13:34:30;;;;;;;2.53;1.60;;;;;;;26.56;38.50;100550.75;4972262;28;20547;-79
2022/07/26 13:37:33;;;;;;;3.17;1.50;;;;;;;26.17;38.23;100549.09;4972627;28;20041;-79
2022/07/26 13:40:37;;;;;;;5.93;1.60;;;;;;;24.68;40.21;100559.94;4973062;28;20093;-78
2022/07/26 13:43:41;;;;;;;5.05;1.58;;;;;;;24.41;41.40;100559.31;4939911;29;20202;-76
2022/07/26 13:46:44;;;;;;;3.47;1.20;;;;;;;24.05;41.72;100570.31;4951485;29;20512;-76
2022/07/26 13:49:47;;;;;;;3.17;1.42;;;;;;;23.84;41.79;100568.16;4952113;29;20415;-76
2022/07/26 13:52:53;;;;;;;2.75;1.30;;;;;;;23.81;41.29;100568.47;4953281;29;20050;-73
2022/07/26 13:55:56;;;;;;;5.47;1.30;;;;;;;23.88;41.05;100558.78;4967020;28;20056;-73
2022/07/26 13:59:00;;;;;;;8.55;1.90;;;;;;;23.93;41.44;100562.78;4991227;28;20045;-72
2022/07/26 14:02:03;;;;;;;3.28;1.30;;;;;;;24.37;40.79;100566.78;4991394;28;20054;-72
2022/07/26 14:05:07;;;;;;;3.13;1.20;;;;;;;24.06;41.31;100560.50;4991314;28;20053;-71
2022/07/26 14:08:11;;;;;;;3.67;1.23;;;;;;;24.12;41.30;100574.00;4990890;28;20181;-71
2022/07/26 14:11:14;;;;;;;4.28;1.15;;;;;;;24.29;41.80;100574.81;4990729;28;20073;-73
2022/07/26 14:14:17;;;;;;;3.75;1.85;;;;;;;24.58;40.47;100570.81;4991395;28;20503;-72
2022/07/26 14:17:21;;;;;;;3.25;1.35;;;;;;;24.23;40.11;100569.31;4991647;28;20049;-72
2022/07/26 14:20:24;;;;;;;5.15;1.38;;;;;;;24.06;40.03;100576.50;4991526;28;20045;-74
2022/07/26 14:23:29;;;;;;;2.75;1.13;;;;;;;23.82;40.80;100580.81;4990748;28;20100;-71
2022/07/26 14:26:32;;;;;;;3.90;1.30;;;;;;;24.00;40.67;100572.66;4990576;28;20133;-71
2022/07/26 14:29:36;;;;;;;5.45;1.30;;;;;;;24.80;38.69;100579.97;4990674;28;20116;-71
2022/07/26 14:32:40;;;;;;;2.47;1.50;;;;;;;28.84;32.19;100565.31;4990920;28;20114;-70
2022/07/26 14:35:44;;;;;;;5.53;1.95;;;;;;;31.57;27.89;100552.72;4991264;28;20049;-71